ENSI weather

Ski Airfield
Ski, Akershus, Norway

Public forecast

Using degrees Celsius for public forecast. Weather courtesy of forecast.io.

METAR (pilot weather report)

Closest report is Oslo, Fornebu Airport, 13.9 nm (25.7 km) NW. Retrieved 2019/04/22 04:20 UTC (15 minutes ago):

ENFB 220420Z AUTO 17045KT 9999NDV NCD 10/06 Q1010 W///S5

TAF (pilot weather forecast)

Closest forecast is Moss Airport, Rygge, 19.9 nm (36.8 km) S. Retrieved 2019/04/22 00:03 UTC (5 hours ago):

TAF TAF ENRY 212300Z 2200/2224 VRB05KT CAVOK BECMG 2207/2209 19010KT BECMG 2216/2218 VRB05KT